sensor_id;sensor_type;location;lat;lon;timestamp;P1;durP1;ratioP1;P2;durP2;ratioP2
62861;SDS011;48953;53.110;5.592;2023-05-14T00:00:29;11.57;;;6.72;;
62861;SDS011;48953;53.110;5.592;2023-05-14T00:02:57;9.90;;;5.43;;
62861;SDS011;48953;53.110;5.592;2023-05-14T00:05:23;13.50;;;8.25;;
62861;SDS011;48953;53.110;5.592;2023-05-14T00:07:49;12.82;;;7.40;;
62861;SDS011;48953;53.110;5.592;2023-05-14T00:10:15;12.52;;;6.68;;
62861;SDS011;48953;53.110;5.592;2023-05-14T00:12:43;13.88;;;8.23;;
62861;SDS011;48953;53.110;5.592;2023-05-14T00:15:09;15.38;;;8.05;;
62861;SDS011;48953;53.110;5.592;2023-05-14T00:17:35;14.32;;;8.90;;
62861;SDS011;48953;53.110;5.592;2023-05-14T00:20:02;14.82;;;8.23;;
62861;SDS011;48953;53.110;5.592;2023-05-14T00:22:31;10.85;;;6.50;;
62861;SDS011;48953;53.110;5.592;2023-05-14T00:24:57;14.65;;;7.97;;
62861;SDS011;48953;53.110;5.592;2023-05-14T00:27:23;14.07;;;9.10;;
62861;SDS011;48953;53.110;5.592;2023-05-14T00:29:48;15.63;;;9.07;;
62861;SDS011;48953;53.110;5.592;2023-05-14T00:32:15;18.15;;;8.75;;
62861;SDS011;48953;53.110;5.592;2023-05-14T00:34:41;17.40;;;8.30;;
62861;SDS011;48953;53.110;5.592;2023-05-14T00:37:07;16.95;;;9.82;;
62861;SDS011;48953;53.110;5.592;2023-05-14T00:39:33;16.50;;;10.10;;
62861;SDS011;48953;53.110;5.592;2023-05-14T00:41:59;18.10;;;10.35;;
62861;SDS011;48953;53.110;5.592;2023-05-14T00:44:34;18.25;;;10.32;;
62861;SDS011;48953;53.110;5.592;2023-05-14T00:47:00;16.67;;;9.95;;
62861;SDS011;48953;53.110;5.592;2023-05-14T00:49:26;15.82;;;8.80;;
62861;SDS011;48953;53.110;5.592;2023-05-14T00:51:52;16.90;;;10.30;;
62861;SDS011;48953;53.110;5.592;2023-05-14T00:54:18;18.45;;;9.57;;
62861;SDS011;48953;53.110;5.592;2023-05-14T00:56:45;18.95;;;10.02;;
62861;SDS011;48953;53.110;5.592;2023-05-14T00:59:12;15.55;;;8.82;;
62861;SDS011;48953;53.110;5.592;2023-05-14T01:01:38;18.48;;;9.35;;
62861;SDS011;48953;53.110;5.592;2023-05-14T01:04:05;14.00;;;8.32;;
62861;SDS011;48953;53.110;5.592;2023-05-14T01:09:16;18.75;;;8.50;;
62861;SDS011;48953;53.110;5.592;2023-05-14T01:16:34;17.63;;;9.15;;
62861;SDS011;48953;53.110;5.592;2023-05-14T01:19:01;18.52;;;9.52;;
62861;SDS011;48953;53.110;5.592;2023-05-14T01:21:35;23.98;;;10.88;;
62861;SDS011;48953;53.110;5.592;2023-05-14T01:24:02;13.18;;;7.35;;
62861;SDS011;48953;53.110;5.592;2023-05-14T01:26:28;18.38;;;10.07;;
62861;SDS011;48953;53.110;5.592;2023-05-14T01:29:00;14.90;;;7.57;;
62861;SDS011;48953;53.110;5.592;2023-05-14T01:31:26;14.13;;;6.45;;
62861;SDS011;48953;53.110;5.592;2023-05-14T01:33:55;12.45;;;6.03;;
62861;SDS011;48953;53.110;5.592;2023-05-14T01:36:24;18.63;;;9.07;;
62861;SDS011;48953;53.110;5.592;2023-05-14T01:38:50;13.05;;;7.10;;
62861;SDS011;48953;53.110;5.592;2023-05-14T01:41:17;11.88;;;5.55;;
62861;SDS011;48953;53.110;5.592;2023-05-14T01:43:44;12.00;;;6.20;;
62861;SDS011;48953;53.110;5.592;2023-05-14T01:46:10;14.68;;;7.53;;
62861;SDS011;48953;53.110;5.592;2023-05-14T01:48:36;10.32;;;4.60;;
62861;SDS011;48953;53.110;5.592;2023-05-14T01:51:04;12.55;;;6.85;;
62861;SDS011;48953;53.110;5.592;2023-05-14T01:53:30;11.90;;;7.00;;
62861;SDS011;48953;53.110;5.592;2023-05-14T01:55:59;16.25;;;7.28;;
62861;SDS011;48953;53.110;5.592;2023-05-14T01:58:25;14.93;;;7.43;;
62861;SDS011;48953;53.110;5.592;2023-05-14T02:00:51;16.38;;;7.63;;
62861;SDS011;48953;53.110;5.592;2023-05-14T02:03:17;13.13;;;6.22;;
62861;SDS011;48953;53.110;5.592;2023-05-14T02:05:43;15.57;;;7.10;;
62861;SDS011;48953;53.110;5.592;2023-05-14T02:08:09;13.52;;;7.38;;
62861;SDS011;48953;53.110;5.592;2023-05-14T02:10:34;13.48;;;7.65;;
62861;SDS011;48953;53.110;5.592;2023-05-14T02:13:01;16.85;;;8.50;;
62861;SDS011;48953;53.110;5.592;2023-05-14T02:15:29;12.93;;;7.65;;
62861;SDS011;48953;53.110;5.592;2023-05-14T02:17:55;14.82;;;8.18;;
62861;SDS011;48953;53.110;5.592;2023-05-14T02:20:21;16.90;;;8.40;;
62861;SDS011;48953;53.110;5.592;2023-05-14T02:22:47;14.25;;;8.00;;
62861;SDS011;48953;53.110;5.592;2023-05-14T02:25:13;15.85;;;7.97;;
62861;SDS011;48953;53.110;5.592;2023-05-14T02:27:39;15.10;;;8.75;;
62861;SDS011;48953;53.110;5.592;2023-05-14T02:30:05;17.15;;;9.90;;
62861;SDS011;48953;53.110;5.592;2023-05-14T02:32:31;16.10;;;8.43;;
62861;SDS011;48953;53.110;5.592;2023-05-14T02:34:57;18.90;;;8.70;;
62861;SDS011;48953;53.110;5.592;2023-05-14T02:37:23;16.13;;;9.20;;
62861;SDS011;48953;53.110;5.592;2023-05-14T02:39:49;16.23;;;8.70;;
62861;SDS011;48953;53.110;5.592;2023-05-14T02:42:15;16.70;;;9.85;;
62861;SDS011;48953;53.110;5.592;2023-05-14T02:44:41;15.82;;;10.23;;
62861;SDS011;48953;53.110;5.592;2023-05-14T02:47:07;14.75;;;7.15;;
62861;SDS011;48953;53.110;5.592;2023-05-14T02:49:32;17.48;;;8.85;;
62861;SDS011;48953;53.110;5.592;2023-05-14T02:51:58;17.35;;;9.77;;
62861;SDS011;48953;53.110;5.592;2023-05-14T02:54:25;17.05;;;10.23;;
62861;SDS011;48953;53.110;5.592;2023-05-14T02:56:51;19.33;;;9.20;;
62861;SDS011;48953;53.110;5.592;2023-05-14T02:59:17;17.83;;;10.32;;
62861;SDS011;48953;53.110;5.592;2023-05-14T03:01:43;18.13;;;10.20;;
62861;SDS011;48953;53.110;5.592;2023-05-14T03:04:09;22.27;;;10.50;;
62861;SDS011;48953;53.110;5.592;2023-05-14T03:06:35;20.42;;;10.10;;
62861;SDS011;48953;53.110;5.592;2023-05-14T03:09:01;16.73;;;10.07;;
62861;SDS011;48953;53.110;5.592;2023-05-14T03:11:27;17.73;;;9.50;;
62861;SDS011;48953;53.110;5.592;2023-05-14T03:13:53;20.42;;;10.45;;
62861;SDS011;48953;53.110;5.592;2023-05-14T03:16:19;17.25;;;7.82;;
62861;SDS011;48953;53.110;5.592;2023-05-14T03:18:45;14.75;;;7.88;;
62861;SDS011;48953;53.110;5.592;2023-05-14T03:21:11;18.92;;;9.32;;
62861;SDS011;48953;53.110;5.592;2023-05-14T03:23:37;20.92;;;9.43;;
62861;SDS011;48953;53.110;5.592;2023-05-14T03:26:03;18.73;;;9.02;;
62861;SDS011;48953;53.110;5.592;2023-05-14T03:28:29;10.82;;;6.05;;
62861;SDS011;48953;53.110;5.592;2023-05-14T03:30:55;17.67;;;8.52;;
62861;SDS011;48953;53.110;5.592;2023-05-14T03:33:21;10.65;;;5.13;;
62861;SDS011;48953;53.110;5.592;2023-05-14T03:35:47;16.55;;;8.10;;
62861;SDS011;48953;53.110;5.592;2023-05-14T03:38:15;12.45;;;6.78;;
62861;SDS011;48953;53.110;5.592;2023-05-14T03:40:43;11.85;;;6.25;;
62861;SDS011;48953;53.110;5.592;2023-05-14T03:43:09;12.93;;;7.72;;
62861;SDS011;48953;53.110;5.592;2023-05-14T03:45:35;14.68;;;6.72;;
62861;SDS011;48953;53.110;5.592;2023-05-14T03:48:01;16.35;;;7.38;;
62861;SDS011;48953;53.110;5.592;2023-05-14T03:50:27;11.98;;;6.75;;
62861;SDS011;48953;53.110;5.592;2023-05-14T03:52:54;13.52;;;6.43;;
62861;SDS011;48953;53.110;5.592;2023-05-14T03:55:20;15.63;;;7.53;;
62861;SDS011;48953;53.110;5.592;2023-05-14T03:57:46;10.88;;;6.88;;
62861;SDS011;48953;53.110;5.592;2023-05-14T04:00:13;11.77;;;6.22;;
62861;SDS011;48953;53.110;5.592;2023-05-14T04:02:39;14.35;;;7.32;;
62861;SDS011;48953;53.110;5.592;2023-05-14T04:05:05;14.77;;;5.93;;
62861;SDS011;48953;53.110;5.592;2023-05-14T04:07:31;15.35;;;6.72;;
62861;SDS011;48953;53.110;5.592;2023-05-14T04:09:57;16.02;;;6.80;;
62861;SDS011;48953;53.110;5.592;2023-05-14T04:12:23;8.63;;;5.60;;
62861;SDS011;48953;53.110;5.592;2023-05-14T04:14:50;9.88;;;4.30;;
62861;SDS011;48953;53.110;5.592;2023-05-14T04:17:16;13.95;;;5.95;;
62861;SDS011;48953;53.110;5.592;2023-05-14T04:19:42;10.80;;;6.60;;
62861;SDS011;48953;53.110;5.592;2023-05-14T04:22:08;11.68;;;6.10;;
62861;SDS011;48953;53.110;5.592;2023-05-14T04:24:36;11.43;;;5.75;;
62861;SDS011;48953;53.110;5.592;2023-05-14T04:27:02;13.27;;;5.32;;
62861;SDS011;48953;53.110;5.592;2023-05-14T04:29:28;10.73;;;5.85;;
62861;SDS011;48953;53.110;5.592;2023-05-14T04:31:54;10.50;;;5.53;;
62861;SDS011;48953;53.110;5.592;2023-05-14T04:34:20;10.38;;;5.82;;
62861;SDS011;48953;53.110;5.592;2023-05-14T04:36:46;12.32;;;5.40;;
62861;SDS011;48953;53.110;5.592;2023-05-14T04:39:12;16.63;;;8.30;;
62861;SDS011;48953;53.110;5.592;2023-05-14T04:41:38;10.90;;;6.45;;
62861;SDS011;48953;53.110;5.592;2023-05-14T04:44:05;13.38;;;6.50;;
62861;SDS011;48953;53.110;5.592;2023-05-14T04:46:31;16.13;;;8.10;;
62861;SDS011;48953;53.110;5.592;2023-05-14T04:48:57;13.77;;;7.22;;
62861;SDS011;48953;53.110;5.592;2023-05-14T04:51:23;19.08;;;8.68;;
62861;SDS011;48953;53.110;5.592;2023-05-14T04:53:49;13.13;;;7.80;;
62861;SDS011;48953;53.110;5.592;2023-05-14T04:56:15;15.75;;;7.40;;
62861;SDS011;48953;53.110;5.592;2023-05-14T04:58:41;13.88;;;6.93;;
62861;SDS011;48953;53.110;5.592;2023-05-14T05:01:06;11.23;;;7.00;;
62861;SDS011;48953;53.110;5.592;2023-05-14T05:03:33;21.42;;;8.20;;
62861;SDS011;48953;53.110;5.592;2023-05-14T05:06:01;12.93;;;6.45;;
62861;SDS011;48953;53.110;5.592;2023-05-14T05:08:27;11.07;;;6.88;;
62861;SDS011;48953;53.110;5.592;2023-05-14T05:10:53;12.45;;;5.40;;
62861;SDS011;48953;53.110;5.592;2023-05-14T05:13:19;12.70;;;5.97;;
62861;SDS011;48953;53.110;5.592;2023-05-14T05:15:45;12.13;;;6.10;;
62861;SDS011;48953;53.110;5.592;2023-05-14T05:18:11;10.25;;;5.82;;
62861;SDS011;48953;53.110;5.592;2023-05-14T05:20:37;12.75;;;5.93;;
62861;SDS011;48953;53.110;5.592;2023-05-14T05:23:03;13.88;;;5.88;;
62861;SDS011;48953;53.110;5.592;2023-05-14T05:25:30;12.98;;;6.07;;
62861;SDS011;48953;53.110;5.592;2023-05-14T05:27:56;12.32;;;6.35;;
62861;SDS011;48953;53.110;5.592;2023-05-14T05:30:22;14.05;;;6.10;;
62861;SDS011;48953;53.110;5.592;2023-05-14T05:32:48;12.68;;;7.13;;
62861;SDS011;48953;53.110;5.592;2023-05-14T05:35:14;13.48;;;5.95;;
62861;SDS011;48953;53.110;5.592;2023-05-14T05:37:41;13.02;;;6.20;;
62861;SDS011;48953;53.110;5.592;2023-05-14T05:40:09;10.95;;;5.43;;
62861;SDS011;48953;53.110;5.592;2023-05-14T05:42:35;7.65;;;3.25;;
62861;SDS011;48953;53.110;5.592;2023-05-14T05:45:01;6.30;;;3.42;;
62861;SDS011;48953;53.110;5.592;2023-05-14T05:47:27;15.60;;;5.57;;
62861;SDS011;48953;53.110;5.592;2023-05-14T05:49:54;12.15;;;4.97;;
62861;SDS011;48953;53.110;5.592;2023-05-14T05:52:20;7.07;;;4.65;;
62861;SDS011;48953;53.110;5.592;2023-05-14T05:54:46;9.98;;;5.18;;
62861;SDS011;48953;53.110;5.592;2023-05-14T05:57:12;10.80;;;4.15;;
62861;SDS011;48953;53.110;5.592;2023-05-14T05:59:38;7.50;;;4.45;;
62861;SDS011;48953;53.110;5.592;2023-05-14T06:02:04;10.05;;;4.40;;
62861;SDS011;48953;53.110;5.592;2023-05-14T06:04:30;9.77;;;3.33;;
62861;SDS011;48953;53.110;5.592;2023-05-14T06:06:58;9.73;;;4.53;;
62861;SDS011;48953;53.110;5.592;2023-05-14T06:09:24;11.65;;;4.03;;
62861;SDS011;48953;53.110;5.592;2023-05-14T06:11:50;10.30;;;4.30;;
62861;SDS011;48953;53.110;5.592;2023-05-14T06:14:16;10.10;;;4.88;;
62861;SDS011;48953;53.110;5.592;2023-05-14T06:16:42;13.98;;;4.65;;
62861;SDS011;48953;53.110;5.592;2023-05-14T06:19:08;10.93;;;4.68;;
62861;SDS011;48953;53.110;5.592;2023-05-14T06:21:34;8.15;;;4.07;;
62861;SDS011;48953;53.110;5.592;2023-05-14T06:24:00;11.80;;;4.80;;
62861;SDS011;48953;53.110;5.592;2023-05-14T06:26:26;8.30;;;4.55;;
62861;SDS011;48953;53.110;5.592;2023-05-14T06:28:53;6.75;;;3.83;;
62861;SDS011;48953;53.110;5.592;2023-05-14T06:31:19;9.95;;;4.40;;
62861;SDS011;48953;53.110;5.592;2023-05-14T06:33:45;9.45;;;4.60;;
62861;SDS011;48953;53.110;5.592;2023-05-14T06:36:11;9.10;;;4.70;;
62861;SDS011;48953;53.110;5.592;2023-05-14T06:38:37;10.05;;;4.82;;
62861;SDS011;48953;53.110;5.592;2023-05-14T06:41:03;11.90;;;4.72;;
62861;SDS011;48953;53.110;5.592;2023-05-14T06:43:29;9.20;;;5.22;;
62861;SDS011;48953;53.110;5.592;2023-05-14T06:45:55;9.38;;;3.97;;
62861;SDS011;48953;53.110;5.592;2023-05-14T06:48:21;10.48;;;4.13;;
62861;SDS011;48953;53.110;5.592;2023-05-14T06:50:47;9.50;;;4.88;;
62861;SDS011;48953;53.110;5.592;2023-05-14T06:53:13;10.43;;;5.30;;
62861;SDS011;48953;53.110;5.592;2023-05-14T06:55:39;7.13;;;3.83;;
62861;SDS011;48953;53.110;5.592;2023-05-14T06:58:06;8.75;;;4.70;;
62861;SDS011;48953;53.110;5.592;2023-05-14T07:00:32;9.10;;;4.72;;
62861;SDS011;48953;53.110;5.592;2023-05-14T07:02:58;8.00;;;4.43;;
62861;SDS011;48953;53.110;5.592;2023-05-14T07:05:24;7.65;;;3.60;;
62861;SDS011;48953;53.110;5.592;2023-05-14T07:07:50;10.63;;;4.85;;
62861;SDS011;48953;53.110;5.592;2023-05-14T07:10:16;11.13;;;4.75;;
62861;SDS011;48953;53.110;5.592;2023-05-14T07:12:42;7.93;;;3.97;;
62861;SDS011;48953;53.110;5.592;2023-05-14T07:15:09;8.63;;;4.20;;
62861;SDS011;48953;53.110;5.592;2023-05-14T07:17:36;11.68;;;5.10;;
62861;SDS011;48953;53.110;5.592;2023-05-14T07:20:02;6.38;;;4.13;;
62861;SDS011;48953;53.110;5.592;2023-05-14T07:22:28;10.85;;;5.55;;
62861;SDS011;48953;53.110;5.592;2023-05-14T07:24:54;6.85;;;4.13;;
62861;SDS011;48953;53.110;5.592;2023-05-14T07:27:20;11.70;;;4.93;;
62861;SDS011;48953;53.110;5.592;2023-05-14T07:29:46;8.25;;;3.83;;
62861;SDS011;48953;53.110;5.592;2023-05-14T07:32:12;6.78;;;3.80;;
62861;SDS011;48953;53.110;5.592;2023-05-14T07:34:38;9.43;;;5.40;;
62861;SDS011;48953;53.110;5.592;2023-05-14T07:37:04;8.68;;;4.57;;
62861;SDS011;48953;53.110;5.592;2023-05-14T07:39:30;13.65;;;4.95;;
62861;SDS011;48953;53.110;5.592;2023-05-14T07:41:56;9.75;;;4.60;;
62861;SDS011;48953;53.110;5.592;2023-05-14T07:44:22;9.85;;;4.78;;
62861;SDS011;48953;53.110;5.592;2023-05-14T07:46:48;9.43;;;4.20;;
62861;SDS011;48953;53.110;5.592;2023-05-14T07:49:14;6.88;;;4.03;;
62861;SDS011;48953;53.110;5.592;2023-05-14T07:51:40;9.40;;;4.00;;
62861;SDS011;48953;53.110;5.592;2023-05-14T07:54:06;12.18;;;5.30;;
62861;SDS011;48953;53.110;5.592;2023-05-14T07:56:33;11.00;;;5.00;;
62861;SDS011;48953;53.110;5.592;2023-05-14T07:59:00;7.95;;;3.97;;
62861;SDS011;48953;53.110;5.592;2023-05-14T08:01:26;9.05;;;4.53;;
62861;SDS011;48953;53.110;5.592;2023-05-14T08:03:52;9.43;;;4.35;;
62861;SDS011;48953;53.110;5.592;2023-05-14T08:06:18;9.40;;;4.75;;
62861;SDS011;48953;53.110;5.592;2023-05-14T08:08:45;11.25;;;4.72;;
62861;SDS011;48953;53.110;5.592;2023-05-14T08:11:11;6.30;;;2.95;;
62861;SDS011;48953;53.110;5.592;2023-05-14T08:13:37;13.48;;;4.47;;
62861;SDS011;48953;53.110;5.592;2023-05-14T08:16:03;6.93;;;4.78;;
62861;SDS011;48953;53.110;5.592;2023-05-14T08:18:30;11.55;;;5.03;;
62861;SDS011;48953;53.110;5.592;2023-05-14T08:20:56;8.52;;;4.78;;
62861;SDS011;48953;53.110;5.592;2023-05-14T08:23:21;9.15;;;5.25;;
62861;SDS011;48953;53.110;5.592;2023-05-14T08:25:47;9.02;;;3.40;;
62861;SDS011;48953;53.110;5.592;2023-05-14T08:28:13;10.27;;;4.63;;
62861;SDS011;48953;53.110;5.592;2023-05-14T08:30:39;11.73;;;4.72;;
62861;SDS011;48953;53.110;5.592;2023-05-14T08:33:05;9.77;;;4.70;;
62861;SDS011;48953;53.110;5.592;2023-05-14T08:35:31;9.45;;;4.47;;
62861;SDS011;48953;53.110;5.592;2023-05-14T08:37:57;6.70;;;3.85;;
62861;SDS011;48953;53.110;5.592;2023-05-14T08:40:24;8.98;;;4.40;;
62861;SDS011;48953;53.110;5.592;2023-05-14T08:42:50;8.40;;;3.80;;
62861;SDS011;48953;53.110;5.592;2023-05-14T08:45:17;8.73;;;4.20;;
62861;SDS011;48953;53.110;5.592;2023-05-14T08:47:47;7.72;;;3.90;;
62861;SDS011;48953;53.110;5.592;2023-05-14T08:50:16;9.13;;;4.30;;
62861;SDS011;48953;53.110;5.592;2023-05-14T08:52:44;5.60;;;3.33;;
62861;SDS011;48953;53.110;5.592;2023-05-14T08:55:10;14.98;;;4.88;;
62861;SDS011;48953;53.110;5.592;2023-05-14T08:57:37;7.43;;;4.50;;
62861;SDS011;48953;53.110;5.592;2023-05-14T09:00:03;9.60;;;4.32;;
62861;SDS011;48953;53.110;5.592;2023-05-14T09:02:33;9.70;;;5.22;;
62861;SDS011;48953;53.110;5.592;2023-05-14T09:04:59;9.60;;;4.20;;
62861;SDS011;48953;53.110;5.592;2023-05-14T09:07:26;8.73;;;4.20;;
62861;SDS011;48953;53.110;5.592;2023-05-14T09:09:53;6.18;;;4.20;;
62861;SDS011;48953;53.110;5.592;2023-05-14T09:12:19;10.48;;;4.78;;
62861;SDS011;48953;53.110;5.592;2023-05-14T09:14:46;7.90;;;4.60;;
62861;SDS011;48953;53.110;5.592;2023-05-14T09:17:12;7.40;;;4.35;;
62861;SDS011;48953;53.110;5.592;2023-05-14T09:19:39;8.75;;;4.90;;
62861;SDS011;48953;53.110;5.592;2023-05-14T09:22:07;8.95;;;4.88;;
62861;SDS011;48953;53.110;5.592;2023-05-14T09:24:33;6.88;;;4.57;;
62861;SDS011;48953;53.110;5.592;2023-05-14T09:27:00;5.53;;;3.92;;
62861;SDS011;48953;53.110;5.592;2023-05-14T09:29:27;8.20;;;4.20;;
62861;SDS011;48953;53.110;5.592;2023-05-14T09:31:54;8.05;;;4.57;;
62861;SDS011;48953;53.110;5.592;2023-05-14T09:34:27;7.57;;;3.65;;
62861;SDS011;48953;53.110;5.592;2023-05-14T09:39:23;5.05;;;3.80;;
62861;SDS011;48953;53.110;5.592;2023-05-14T09:41:50;6.88;;;3.78;;
62861;SDS011;48953;53.110;5.592;2023-05-14T09:44:17;7.78;;;4.57;;
62861;SDS011;48953;53.110;5.592;2023-05-14T09:46:43;7.13;;;3.90;;
62861;SDS011;48953;53.110;5.592;2023-05-14T09:49:10;7.70;;;4.70;;
62861;SDS011;48953;53.110;5.592;2023-05-14T09:51:36;9.10;;;4.55;;
62861;SDS011;48953;53.110;5.592;2023-05-14T09:54:05;8.65;;;4.50;;
62861;SDS011;48953;53.110;5.592;2023-05-14T09:56:32;9.65;;;4.90;;
62861;SDS011;48953;53.110;5.592;2023-05-14T09:58:58;9.13;;;5.07;;
62861;SDS011;48953;53.110;5.592;2023-05-14T10:01:24;8.93;;;4.55;;
62861;SDS011;48953;53.110;5.592;2023-05-14T10:03:54;6.25;;;3.97;;
62861;SDS011;48953;53.110;5.592;2023-05-14T10:06:21;7.88;;;4.80;;
62861;SDS011;48953;53.110;5.592;2023-05-14T10:08:48;6.60;;;4.80;;
62861;SDS011;48953;53.110;5.592;2023-05-14T10:11:18;10.48;;;5.70;;
62861;SDS011;48953;53.110;5.592;2023-05-14T10:13:58;10.30;;;5.38;;
62861;SDS011;48953;53.110;5.592;2023-05-14T10:18:53;10.15;;;5.20;;
62861;SDS011;48953;53.110;5.592;2023-05-14T10:21:21;10.13;;;4.40;;
62861;SDS011;48953;53.110;5.592;2023-05-14T10:23:47;9.60;;;5.60;;
62861;SDS011;48953;53.110;5.592;2023-05-14T10:26:14;7.18;;;5.47;;
62861;SDS011;48953;53.110;5.592;2023-05-14T10:28:40;8.23;;;5.13;;
62861;SDS011;48953;53.110;5.592;2023-05-14T10:31:08;10.45;;;5.72;;
62861;SDS011;48953;53.110;5.592;2023-05-14T10:33:47;6.55;;;4.85;;
62861;SDS011;48953;53.110;5.592;2023-05-14T10:36:14;9.02;;;5.82;;
62861;SDS011;48953;53.110;5.592;2023-05-14T10:38:40;6.05;;;4.35;;
62861;SDS011;48953;53.110;5.592;2023-05-14T10:41:10;9.35;;;5.13;;
62861;SDS011;48953;53.110;5.592;2023-05-14T10:43:37;8.38;;;5.10;;
62861;SDS011;48953;53.110;5.592;2023-05-14T10:46:04;9.32;;;5.30;;
62861;SDS011;48953;53.110;5.592;2023-05-14T10:48:30;7.15;;;5.50;;
62861;SDS011;48953;53.110;5.592;2023-05-14T10:50:57;9.18;;;5.03;;
62861;SDS011;48953;53.110;5.592;2023-05-14T10:53:30;8.15;;;5.45;;
62861;SDS011;48953;53.110;5.592;2023-05-14T10:55:57;7.07;;;4.95;;
62861;SDS011;48953;53.110;5.592;2023-05-14T10:58:23;9.35;;;5.22;;
62861;SDS011;48953;53.110;5.592;2023-05-14T11:00:49;8.02;;;5.15;;
62861;SDS011;48953;53.110;5.592;2023-05-14T11:03:19;6.43;;;5.60;;
62861;SDS011;48953;53.110;5.592;2023-05-14T11:05:45;8.07;;;5.38;;
62861;SDS011;48953;53.110;5.592;2023-05-14T11:08:12;9.48;;;6.18;;
62861;SDS011;48953;53.110;5.592;2023-05-14T11:10:38;10.80;;;4.80;;
62861;SDS011;48953;53.110;5.592;2023-05-14T11:13:04;9.07;;;6.47;;
62861;SDS011;48953;53.110;5.592;2023-05-14T11:15:30;10.23;;;5.75;;
62861;SDS011;48953;53.110;5.592;2023-05-14T11:17:56;7.05;;;5.55;;
62861;SDS011;48953;53.110;5.592;2023-05-14T11:20:22;9.45;;;6.22;;
62861;SDS011;48953;53.110;5.592;2023-05-14T11:22:48;11.15;;;6.15;;
62861;SDS011;48953;53.110;5.592;2023-05-14T11:25:18;9.73;;;6.53;;
62861;SDS011;48953;53.110;5.592;2023-05-14T11:27:45;10.48;;;5.78;;
62861;SDS011;48953;53.110;5.592;2023-05-14T11:30:12;8.02;;;5.60;;
62861;SDS011;48953;53.110;5.592;2023-05-14T11:32:39;10.02;;;6.43;;
62861;SDS011;48953;53.110;5.592;2023-05-14T11:35:05;11.10;;;6.57;;
62861;SDS011;48953;53.110;5.592;2023-05-14T11:37:31;12.73;;;7.07;;
62861;SDS011;48953;53.110;5.592;2023-05-14T11:39:58;11.95;;;7.40;;
62861;SDS011;48953;53.110;5.592;2023-05-14T11:42:25;10.32;;;6.07;;
62861;SDS011;48953;53.110;5.592;2023-05-14T11:44:51;12.80;;;7.53;;
62861;SDS011;48953;53.110;5.592;2023-05-14T11:47:18;11.63;;;7.07;;
62861;SDS011;48953;53.110;5.592;2023-05-14T11:49:45;10.23;;;6.45;;
62861;SDS011;48953;53.110;5.592;2023-05-14T11:52:12;9.02;;;6.68;;
62861;SDS011;48953;53.110;5.592;2023-05-14T11:54:38;6.50;;;5.80;;
62861;SDS011;48953;53.110;5.592;2023-05-14T11:57:08;9.95;;;6.20;;
62861;SDS011;48953;53.110;5.592;2023-05-14T12:02:01;7.70;;;5.28;;
62861;SDS011;48953;53.110;5.592;2023-05-14T12:04:28;9.93;;;6.95;;
62861;SDS011;48953;53.110;5.592;2023-05-14T12:06:56;10.77;;;6.68;;
62861;SDS011;48953;53.110;5.592;2023-05-14T12:09:22;10.15;;;6.50;;
62861;SDS011;48953;53.110;5.592;2023-05-14T12:11:48;13.48;;;6.93;;
62861;SDS011;48953;53.110;5.592;2023-05-14T12:14:16;9.10;;;6.40;;
62861;SDS011;48953;53.110;5.592;2023-05-14T12:16:42;12.20;;;6.47;;
62861;SDS011;48953;53.110;5.592;2023-05-14T12:19:09;12.38;;;6.63;;
62861;SDS011;48953;53.110;5.592;2023-05-14T12:21:35;10.20;;;6.68;;
62861;SDS011;48953;53.110;5.592;2023-05-14T12:24:02;14.75;;;7.00;;
62861;SDS011;48953;53.110;5.592;2023-05-14T12:26:31;13.50;;;6.82;;
62861;SDS011;48953;53.110;5.592;2023-05-14T12:29:01;9.93;;;7.82;;
62861;SDS011;48953;53.110;5.592;2023-05-14T12:31:30;11.23;;;7.28;;
62861;SDS011;48953;53.110;5.592;2023-05-14T12:33:56;8.52;;;7.05;;
62861;SDS011;48953;53.110;5.592;2023-05-14T12:36:22;11.25;;;6.80;;
62861;SDS011;48953;53.110;5.592;2023-05-14T12:38:49;12.13;;;7.82;;
62861;SDS011;48953;53.110;5.592;2023-05-14T12:41:16;12.13;;;8.70;;
62861;SDS011;48953;53.110;5.592;2023-05-14T12:43:42;13.68;;;8.27;;
62861;SDS011;48953;53.110;5.592;2023-05-14T12:46:09;10.27;;;7.47;;
62861;SDS011;48953;53.110;5.592;2023-05-14T12:48:35;13.45;;;8.35;;
62861;SDS011;48953;53.110;5.592;2023-05-14T12:51:01;12.38;;;8.02;;
62861;SDS011;48953;53.110;5.592;2023-05-14T12:53:27;12.82;;;8.80;;
62861;SDS011;48953;53.110;5.592;2023-05-14T12:55:53;10.98;;;7.25;;
62861;SDS011;48953;53.110;5.592;2023-05-14T12:58:19;9.60;;;7.07;;
62861;SDS011;48953;53.110;5.592;2023-05-14T13:00:45;12.85;;;8.35;;
62861;SDS011;48953;53.110;5.592;2023-05-14T13:03:11;9.77;;;7.47;;
62861;SDS011;48953;53.110;5.592;2023-05-14T13:05:37;12.35;;;8.02;;
62861;SDS011;48953;53.110;5.592;2023-05-14T13:08:03;11.98;;;8.35;;
62861;SDS011;48953;53.110;5.592;2023-05-14T13:10:29;11.60;;;7.22;;
62861;SDS011;48953;53.110;5.592;2023-05-14T13:12:55;10.50;;;7.20;;
62861;SDS011;48953;53.110;5.592;2023-05-14T13:15:22;8.23;;;6.65;;
62861;SDS011;48953;53.110;5.592;2023-05-14T13:17:48;13.18;;;8.68;;
62861;SDS011;48953;53.110;5.592;2023-05-14T13:20:14;13.65;;;8.32;;
62861;SDS011;48953;53.110;5.592;2023-05-14T13:22:42;14.05;;;7.97;;
62861;SDS011;48953;53.110;5.592;2023-05-14T13:25:10;10.23;;;6.72;;
62861;SDS011;48953;53.110;5.592;2023-05-14T13:27:36;11.85;;;8.27;;
62861;SDS011;48953;53.110;5.592;2023-05-14T13:30:02;12.32;;;8.70;;
62861;SDS011;48953;53.110;5.592;2023-05-14T13:32:28;11.50;;;8.95;;
62861;SDS011;48953;53.110;5.592;2023-05-14T13:34:55;12.30;;;9.68;;
62861;SDS011;48953;53.110;5.592;2023-05-14T13:37:21;15.40;;;9.25;;
62861;SDS011;48953;53.110;5.592;2023-05-14T13:39:47;13.95;;;8.52;;
62861;SDS011;48953;53.110;5.592;2023-05-14T13:42:13;13.85;;;8.70;;
62861;SDS011;48953;53.110;5.592;2023-05-14T13:44:39;10.30;;;7.30;;
62861;SDS011;48953;53.110;5.592;2023-05-14T13:47:05;11.20;;;8.20;;
62861;SDS011;48953;53.110;5.592;2023-05-14T13:49:31;10.65;;;7.68;;
62861;SDS011;48953;53.110;5.592;2023-05-14T13:51:57;13.68;;;7.35;;
62861;SDS011;48953;53.110;5.592;2023-05-14T13:54:23;12.63;;;8.32;;
62861;SDS011;48953;53.110;5.592;2023-05-14T13:56:49;10.98;;;9.30;;
62861;SDS011;48953;53.110;5.592;2023-05-14T13:59:16;9.93;;;7.57;;
62861;SDS011;48953;53.110;5.592;2023-05-14T14:01:42;11.10;;;8.13;;
62861;SDS011;48953;53.110;5.592;2023-05-14T14:04:08;13.27;;;8.38;;
62861;SDS011;48953;53.110;5.592;2023-05-14T14:06:34;11.25;;;8.80;;
62861;SDS011;48953;53.110;5.592;2023-05-14T14:09:00;14.57;;;9.15;;
62861;SDS011;48953;53.110;5.592;2023-05-14T14:11:26;12.60;;;8.73;;
62861;SDS011;48953;53.110;5.592;2023-05-14T14:13:52;12.20;;;8.80;;
62861;SDS011;48953;53.110;5.592;2023-05-14T14:16:18;11.43;;;8.55;;
62861;SDS011;48953;53.110;5.592;2023-05-14T14:18:44;13.38;;;9.15;;
62861;SDS011;48953;53.110;5.592;2023-05-14T14:21:10;11.60;;;7.97;;
62861;SDS011;48953;53.110;5.592;2023-05-14T14:23:36;11.38;;;7.28;;
62861;SDS011;48953;53.110;5.592;2023-05-14T14:26:02;12.98;;;9.65;;
62861;SDS011;48953;53.110;5.592;2023-05-14T14:28:28;9.57;;;6.30;;
62861;SDS011;48953;53.110;5.592;2023-05-14T14:30:55;13.73;;;7.90;;
62861;SDS011;48953;53.110;5.592;2023-05-14T14:33:21;14.82;;;9.18;;
62861;SDS011;48953;53.110;5.592;2023-05-14T14:35:47;13.02;;;8.98;;
62861;SDS011;48953;53.110;5.592;2023-05-14T14:38:13;12.60;;;8.80;;
62861;SDS011;48953;53.110;5.592;2023-05-14T14:40:39;16.27;;;10.48;;
62861;SDS011;48953;53.110;5.592;2023-05-14T14:43:05;18.88;;;10.45;;
62861;SDS011;48953;53.110;5.592;2023-05-14T14:45:31;16.15;;;9.70;;
62861;SDS011;48953;53.110;5.592;2023-05-14T14:50:42;13.10;;;10.10;;